sensor_id;sensor_type;location;lat;lon;timestamp;temperature;humidity
573;DHT22;271;51.114;13.780;2022-11-12T00:00:42;5.00;1.00
573;DHT22;271;51.114;13.780;2022-11-12T00:03:10;5.00;1.00
573;DHT22;271;51.114;13.780;2022-11-12T00:05:37;5.10;1.00
573;DHT22;271;51.114;13.780;2022-11-12T00:08:05;4.90;1.00
573;DHT22;271;51.114;13.780;2022-11-12T00:10:32;5.00;1.00
573;DHT22;271;51.114;13.780;2022-11-12T00:13:00;4.90;1.00
573;DHT22;271;51.114;13.780;2022-11-12T00:15:28;4.90;1.00
573;DHT22;271;51.114;13.780;2022-11-12T00:17:56;5.00;1.00
573;DHT22;271;51.114;13.780;2022-11-12T00:20:23;4.90;1.00
573;DHT22;271;51.114;13.780;2022-11-12T00:22:50;4.90;1.00
573;DHT22;271;51.114;13.780;2022-11-12T00:25:18;5.00;1.00
573;DHT22;271;51.114;13.780;2022-11-12T00:27:45;4.90;1.00
573;DHT22;271;51.114;13.780;2022-11-12T00:30:12;4.90;1.00
573;DHT22;271;51.114;13.780;2022-11-12T00:32:41;4.90;1.00
573;DHT22;271;51.114;13.780;2022-11-12T00:35:09;5.00;1.00
573;DHT22;271;51.114;13.780;2022-11-12T00:37:37;4.90;1.00
573;DHT22;271;51.114;13.780;2022-11-12T00:40:05;4.90;1.00
573;DHT22;271;51.114;13.780;2022-11-12T00:42:33;4.90;1.00
573;DHT22;271;51.114;13.780;2022-11-12T00:45:00;4.90;1.00
573;DHT22;271;51.114;13.780;2022-11-12T00:47:28;4.80;1.00
573;DHT22;271;51.114;13.780;2022-11-12T00:49:56;4.80;1.00
573;DHT22;271;51.114;13.780;2022-11-12T00:52:24;4.70;1.00
573;DHT22;271;51.114;13.780;2022-11-12T00:54:51;4.70;1.00
573;DHT22;271;51.114;13.780;2022-11-12T00:57:18;4.70;1.00
573;DHT22;271;51.114;13.780;2022-11-12T00:59:46;4.80;1.00
573;DHT22;271;51.114;13.780;2022-11-12T01:02:13;4.80;1.00
573;DHT22;271;51.114;13.780;2022-11-12T01:04:41;4.80;1.00
573;DHT22;271;51.114;13.780;2022-11-12T01:07:09;4.70;1.00
573;DHT22;271;51.114;13.780;2022-11-12T01:09:37;4.70;1.00
573;DHT22;271;51.114;13.780;2022-11-12T01:12:04;4.60;1.00
573;DHT22;271;51.114;13.780;2022-11-12T01:14:31;4.60;1.00
573;DHT22;271;51.114;13.780;2022-11-12T01:16:59;4.60;1.00
573;DHT22;271;51.114;13.780;2022-11-12T01:19:26;4.70;1.00
573;DHT22;271;51.114;13.780;2022-11-12T01:21:53;4.60;1.00
573;DHT22;271;51.114;13.780;2022-11-12T01:24:22;4.60;1.00
573;DHT22;271;51.114;13.780;2022-11-12T01:26:49;4.60;1.00
573;DHT22;271;51.114;13.780;2022-11-12T01:29:17;4.70;1.00
573;DHT22;271;51.114;13.780;2022-11-12T01:31:44;4.70;1.00
573;DHT22;271;51.114;13.780;2022-11-12T01:34:11;4.70;1.00
573;DHT22;271;51.114;13.780;2022-11-12T01:36:39;4.70;1.00
573;DHT22;271;51.114;13.780;2022-11-12T01:39:08;4.60;1.00
573;DHT22;271;51.114;13.780;2022-11-12T01:41:38;4.60;1.00
573;DHT22;271;51.114;13.780;2022-11-12T01:44:07;4.70;1.00
573;DHT22;271;51.114;13.780;2022-11-12T01:46:39;4.70;1.00
573;DHT22;271;51.114;13.780;2022-11-12T01:49:12;4.70;1.00
573;DHT22;271;51.114;13.780;2022-11-12T01:51:44;4.80;1.00
573;DHT22;271;51.114;13.780;2022-11-12T01:54:16;4.60;1.00
573;DHT22;271;51.114;13.780;2022-11-12T01:56:48;4.70;1.00
573;DHT22;271;51.114;13.780;2022-11-12T01:59:21;4.70;1.00
573;DHT22;271;51.114;13.780;2022-11-12T02:01:50;4.70;1.00
573;DHT22;271;51.114;13.780;2022-11-12T02:04:18;4.70;1.00
573;DHT22;271;51.114;13.780;2022-11-12T02:06:47;4.70;1.00
573;DHT22;271;51.114;13.780;2022-11-12T02:09:15;4.70;1.00
573;DHT22;271;51.114;13.780;2022-11-12T02:11:43;4.80;1.00
573;DHT22;271;51.114;13.780;2022-11-12T02:14:12;4.70;1.00
573;DHT22;271;51.114;13.780;2022-11-12T02:16:41;4.80;1.00
573;DHT22;271;51.114;13.780;2022-11-12T02:19:11;4.80;1.00
573;DHT22;271;51.114;13.780;2022-11-12T02:21:40;4.90;1.00
573;DHT22;271;51.114;13.780;2022-11-12T02:24:32;4.80;1.00
573;DHT22;271;51.114;13.780;2022-11-12T02:27:00;4.70;1.00
573;DHT22;271;51.114;13.780;2022-11-12T02:29:27;4.70;1.00
573;DHT22;271;51.114;13.780;2022-11-12T02:31:55;4.70;1.00
573;DHT22;271;51.114;13.780;2022-11-12T02:34:22;4.70;1.00
573;DHT22;271;51.114;13.780;2022-11-12T02:36:51;4.70;1.00
573;DHT22;271;51.114;13.780;2022-11-12T02:39:18;4.80;1.00
573;DHT22;271;51.114;13.780;2022-11-12T02:41:46;4.80;1.00
573;DHT22;271;51.114;13.780;2022-11-12T02:44:13;4.70;1.00
573;DHT22;271;51.114;13.780;2022-11-12T02:46:40;4.70;1.00
573;DHT22;271;51.114;13.780;2022-11-12T02:49:08;4.70;1.00
573;DHT22;271;51.114;13.780;2022-11-12T02:51:35;4.70;1.00
573;DHT22;271;51.114;13.780;2022-11-12T02:54:04;4.70;1.00
573;DHT22;271;51.114;13.780;2022-11-12T02:56:31;4.70;1.00
573;DHT22;271;51.114;13.780;2022-11-12T02:58:59;4.70;1.00
573;DHT22;271;51.114;13.780;2022-11-12T03:01:26;4.70;1.00
573;DHT22;271;51.114;13.780;2022-11-12T03:03:54;4.70;1.00
573;DHT22;271;51.114;13.780;2022-11-12T03:06:21;4.80;1.00
573;DHT22;271;51.114;13.780;2022-11-12T03:08:48;4.70;1.00
573;DHT22;271;51.114;13.780;2022-11-12T03:11:17;4.60;1.00
573;DHT22;271;51.114;13.780;2022-11-12T03:13:44;4.60;1.00
573;DHT22;271;51.114;13.780;2022-11-12T03:16:12;4.60;1.00
573;DHT22;271;51.114;13.780;2022-11-12T03:18:39;4.60;1.00
573;DHT22;271;51.114;13.780;2022-11-12T03:21:07;4.60;1.00
573;DHT22;271;51.114;13.780;2022-11-12T03:23:34;4.60;1.00
573;DHT22;271;51.114;13.780;2022-11-12T03:26:02;4.50;1.00
573;DHT22;271;51.114;13.780;2022-11-12T03:28:31;4.40;1.00
573;DHT22;271;51.114;13.780;2022-11-12T03:31:00;4.40;1.00
573;DHT22;271;51.114;13.780;2022-11-12T03:33:27;4.40;1.00
573;DHT22;271;51.114;13.780;2022-11-12T03:35:54;4.30;1.00
573;DHT22;271;51.114;13.780;2022-11-12T03:38:22;4.30;1.00
573;DHT22;271;51.114;13.780;2022-11-12T03:40:49;4.30;1.00
573;DHT22;271;51.114;13.780;2022-11-12T03:43:16;4.30;1.00
573;DHT22;271;51.114;13.780;2022-11-12T03:45:45;4.30;1.00
573;DHT22;271;51.114;13.780;2022-11-12T03:48:13;4.20;1.00
573;DHT22;271;51.114;13.780;2022-11-12T03:50:40;4.30;1.00
573;DHT22;271;51.114;13.780;2022-11-12T03:53:08;4.30;1.00
573;DHT22;271;51.114;13.780;2022-11-12T03:55:35;4.40;1.00
573;DHT22;271;51.114;13.780;2022-11-12T03:58:02;4.40;1.00
573;DHT22;271;51.114;13.780;2022-11-12T04:00:30;4.50;1.00
573;DHT22;271;51.114;13.780;2022-11-12T04:02:59;4.60;1.00
573;DHT22;271;51.114;13.780;2022-11-12T04:05:26;4.60;1.00
573;DHT22;271;51.114;13.780;2022-11-12T04:08:13;4.70;1.00
573;DHT22;271;51.114;13.780;2022-11-12T04:10:59;4.50;1.00
573;DHT22;271;51.114;13.780;2022-11-12T04:13:26;4.50;1.00
573;DHT22;271;51.114;13.780;2022-11-12T04:15:54;4.50;1.00
573;DHT22;271;51.114;13.780;2022-11-12T04:18:41;4.50;1.00
573;DHT22;271;51.114;13.780;2022-11-12T04:21:29;4.60;1.00
573;DHT22;271;51.114;13.780;2022-11-12T04:24:24;4.50;1.00
573;DHT22;271;51.114;13.780;2022-11-12T04:27:12;4.50;1.00
573;DHT22;271;51.114;13.780;2022-11-12T04:29:40;4.40;1.00
573;DHT22;271;51.114;13.780;2022-11-12T04:32:25;4.40;1.00
573;DHT22;271;51.114;13.780;2022-11-12T04:34:54;4.40;1.00
573;DHT22;271;51.114;13.780;2022-11-12T04:37:24;4.30;1.00
573;DHT22;271;51.114;13.780;2022-11-12T04:39:52;4.20;1.00
573;DHT22;271;51.114;13.780;2022-11-12T04:42:19;4.30;1.00
573;DHT22;271;51.114;13.780;2022-11-12T04:45:06;4.20;1.00
573;DHT22;271;51.114;13.780;2022-11-12T04:47:35;4.10;1.00
573;DHT22;271;51.114;13.780;2022-11-12T04:50:07;4.20;1.00
573;DHT22;271;51.114;13.780;2022-11-12T04:52:34;4.10;1.00
573;DHT22;271;51.114;13.780;2022-11-12T04:55:02;4.10;1.00
573;DHT22;271;51.114;13.780;2022-11-12T04:57:29;4.00;1.00
573;DHT22;271;51.114;13.780;2022-11-12T04:59:57;3.90;1.00
573;DHT22;271;51.114;13.780;2022-11-12T05:02:24;3.80;1.00
573;DHT22;271;51.114;13.780;2022-11-12T05:04:51;3.80;1.00
573;DHT22;271;51.114;13.780;2022-11-12T05:07:20;3.80;1.00
573;DHT22;271;51.114;13.780;2022-11-12T05:09:48;3.70;1.00
573;DHT22;271;51.114;13.780;2022-11-12T05:12:15;3.70;1.00
573;DHT22;271;51.114;13.780;2022-11-12T05:14:42;3.60;1.00
573;DHT22;271;51.114;13.780;2022-11-12T05:17:10;3.60;1.00
573;DHT22;271;51.114;13.780;2022-11-12T05:19:37;3.60;1.00
573;DHT22;271;51.114;13.780;2022-11-12T05:22:04;3.60;1.00
573;DHT22;271;51.114;13.780;2022-11-12T05:24:34;3.50;1.00
573;DHT22;271;51.114;13.780;2022-11-12T05:27:02;3.50;1.00
573;DHT22;271;51.114;13.780;2022-11-12T05:29:30;3.50;1.00
573;DHT22;271;51.114;13.780;2022-11-12T05:31:57;3.50;1.00
573;DHT22;271;51.114;13.780;2022-11-12T05:34:24;3.40;1.00
573;DHT22;271;51.114;13.780;2022-11-12T05:36:52;3.40;1.00
573;DHT22;271;51.114;13.780;2022-11-12T05:39:20;3.50;1.00
573;DHT22;271;51.114;13.780;2022-11-12T05:41:49;3.50;1.00
573;DHT22;271;51.114;13.780;2022-11-12T05:44:16;3.50;1.00
573;DHT22;271;51.114;13.780;2022-11-12T05:46:44;3.40;1.00
573;DHT22;271;51.114;13.780;2022-11-12T05:49:11;3.50;1.00
573;DHT22;271;51.114;13.780;2022-11-12T05:51:39;3.40;1.00
573;DHT22;271;51.114;13.780;2022-11-12T05:54:06;3.30;1.00
573;DHT22;271;51.114;13.780;2022-11-12T05:56:34;3.20;1.00
573;DHT22;271;51.114;13.780;2022-11-12T05:59:05;3.10;1.00
573;DHT22;271;51.114;13.780;2022-11-12T06:01:33;3.00;1.00
573;DHT22;271;51.114;13.780;2022-11-12T06:04:01;3.10;1.00
573;DHT22;271;51.114;13.780;2022-11-12T06:06:28;3.10;1.00
573;DHT22;271;51.114;13.780;2022-11-12T06:08:58;3.00;1.00
573;DHT22;271;51.114;13.780;2022-11-12T06:11:25;3.00;1.00
573;DHT22;271;51.114;13.780;2022-11-12T06:13:52;2.90;1.00
573;DHT22;271;51.114;13.780;2022-11-12T06:16:21;3.00;1.00
573;DHT22;271;51.114;13.780;2022-11-12T06:18:49;3.00;1.00
573;DHT22;271;51.114;13.780;2022-11-12T06:21:16;3.00;1.00
573;DHT22;271;51.114;13.780;2022-11-12T06:23:49;2.90;1.00
573;DHT22;271;51.114;13.780;2022-11-12T06:26:17;2.90;1.00
573;DHT22;271;51.114;13.780;2022-11-12T06:28:45;2.90;1.00
573;DHT22;271;51.114;13.780;2022-11-12T06:31:13;2.90;1.00
573;DHT22;271;51.114;13.780;2022-11-12T06:33:42;2.90;1.00
573;DHT22;271;51.114;13.780;2022-11-12T06:36:10;3.00;1.00
573;DHT22;271;51.114;13.780;2022-11-12T06:38:39;2.90;1.00
573;DHT22;271;51.114;13.780;2022-11-12T06:41:09;2.90;1.00
573;DHT22;271;51.114;13.780;2022-11-12T06:43:37;2.90;1.00
573;DHT22;271;51.114;13.780;2022-11-12T06:46:07;2.90;1.00
573;DHT22;271;51.114;13.780;2022-11-12T06:48:34;2.90;1.00
573;DHT22;271;51.114;13.780;2022-11-12T06:51:14;2.90;1.00
573;DHT22;271;51.114;13.780;2022-11-12T06:53:43;2.90;1.00
573;DHT22;271;51.114;13.780;2022-11-12T06:56:11;2.80;1.00
573;DHT22;271;51.114;13.780;2022-11-12T06:58:39;2.80;1.00
573;DHT22;271;51.114;13.780;2022-11-12T07:01:08;2.90;1.00
573;DHT22;271;51.114;13.780;2022-11-12T07:03:36;2.90;1.00
573;DHT22;271;51.114;13.780;2022-11-12T07:06:10;2.90;1.00
573;DHT22;271;51.114;13.780;2022-11-12T07:08:38;2.90;1.00
573;DHT22;271;51.114;13.780;2022-11-12T07:11:06;2.90;1.00
573;DHT22;271;51.114;13.780;2022-11-12T07:13:34;2.90;1.00
573;DHT22;271;51.114;13.780;2022-11-12T07:16:03;3.00;1.00
573;DHT22;271;51.114;13.780;2022-11-12T07:18:32;3.00;1.00
573;DHT22;271;51.114;13.780;2022-11-12T07:21:02;3.00;1.00
573;DHT22;271;51.114;13.780;2022-11-12T07:23:32;3.00;1.00
573;DHT22;271;51.114;13.780;2022-11-12T07:26:01;3.10;1.00
573;DHT22;271;51.114;13.780;2022-11-12T07:28:29;3.10;1.00
573;DHT22;271;51.114;13.780;2022-11-12T07:30:59;3.10;1.00
573;DHT22;271;51.114;13.780;2022-11-12T07:33:27;3.10;1.00
573;DHT22;271;51.114;13.780;2022-11-12T07:35:59;3.10;1.00
573;DHT22;271;51.114;13.780;2022-11-12T07:38:27;3.20;1.00
573;DHT22;271;51.114;13.780;2022-11-12T07:41:00;3.30;1.00
573;DHT22;271;51.114;13.780;2022-11-12T07:43:28;3.40;1.00
573;DHT22;271;51.114;13.780;2022-11-12T07:45:59;3.40;1.00
573;DHT22;271;51.114;13.780;2022-11-12T07:48:28;3.50;1.00
573;DHT22;271;51.114;13.780;2022-11-12T07:51:00;3.60;1.00
573;DHT22;271;51.114;13.780;2022-11-12T07:53:28;3.60;1.00
573;DHT22;271;51.114;13.780;2022-11-12T07:55:56;3.60;1.00
573;DHT22;271;51.114;13.780;2022-11-12T07:58:25;3.70;1.00
573;DHT22;271;51.114;13.780;2022-11-12T08:00:53;3.70;1.00
573;DHT22;271;51.114;13.780;2022-11-12T08:03:21;3.80;1.00
573;DHT22;271;51.114;13.780;2022-11-12T08:05:48;3.90;1.00
573;DHT22;271;51.114;13.780;2022-11-12T08:08:16;3.90;1.00
573;DHT22;271;51.114;13.780;2022-11-12T08:10:43;4.00;1.00
573;DHT22;271;51.114;13.780;2022-11-12T08:13:10;4.20;1.00
573;DHT22;271;51.114;13.780;2022-11-12T08:15:39;4.40;1.00
573;DHT22;271;51.114;13.780;2022-11-12T08:18:06;4.70;1.00
573;DHT22;271;51.114;13.780;2022-11-12T08:20:34;5.10;1.00
573;DHT22;271;51.114;13.780;2022-11-12T08:23:01;5.40;1.00
573;DHT22;271;51.114;13.780;2022-11-12T08:25:28;5.50;1.00
573;DHT22;271;51.114;13.780;2022-11-12T08:27:56;5.80;1.00
573;DHT22;271;51.114;13.780;2022-11-12T08:30:25;6.30;1.00
573;DHT22;271;51.114;13.780;2022-11-12T08:32:59;6.70;1.00
573;DHT22;271;51.114;13.780;2022-11-12T08:35:28;7.50;1.00
573;DHT22;271;51.114;13.780;2022-11-12T08:37:59;8.10;1.00
573;DHT22;271;51.114;13.780;2022-11-12T08:40:28;8.70;1.00
573;DHT22;271;51.114;13.780;2022-11-12T08:42:56;9.20;1.00
573;DHT22;271;51.114;13.780;2022-11-12T08:45:25;9.50;1.00
573;DHT22;271;51.114;13.780;2022-11-12T08:47:53;9.80;1.00
573;DHT22;271;51.114;13.780;2022-11-12T08:50:25;10.30;1.00
573;DHT22;271;51.114;13.780;2022-11-12T08:53:03;10.80;1.00
573;DHT22;271;51.114;13.780;2022-11-12T08:55:31;11.20;1.00
573;DHT22;271;51.114;13.780;2022-11-12T08:57:59;11.60;1.00
573;DHT22;271;51.114;13.780;2022-11-12T09:00:28;12.10;1.00
573;DHT22;271;51.114;13.780;2022-11-12T09:02:58;12.60;1.00
573;DHT22;271;51.114;13.780;2022-11-12T09:05:36;13.20;1.00
573;DHT22;271;51.114;13.780;2022-11-12T09:08:05;13.80;1.00
573;DHT22;271;51.114;13.780;2022-11-12T09:10:34;14.30;1.00
573;DHT22;271;51.114;13.780;2022-11-12T09:13:02;14.80;1.00
573;DHT22;271;51.114;13.780;2022-11-12T09:15:36;15.20;1.00
573;DHT22;271;51.114;13.780;2022-11-12T09:18:05;15.40;1.00
573;DHT22;271;51.114;13.780;2022-11-12T09:20:33;15.70;1.00
573;DHT22;271;51.114;13.780;2022-11-12T09:23:07;15.90;1.00
573;DHT22;271;51.114;13.780;2022-11-12T09:25:44;16.20;1.00
573;DHT22;271;51.114;13.780;2022-11-12T09:28:13;16.40;1.00
573;DHT22;271;51.114;13.780;2022-11-12T09:30:43;16.60;1.00
573;DHT22;271;51.114;13.780;2022-11-12T09:33:11;16.80;1.00
573;DHT22;271;51.114;13.780;2022-11-12T09:35:39;16.90;1.00
573;DHT22;271;51.114;13.780;2022-11-12T09:38:22;17.30;1.00
573;DHT22;271;51.114;13.780;2022-11-12T09:41:15;17.60;1.00
573;DHT22;271;51.114;13.780;2022-11-12T09:43:55;17.90;1.00
573;DHT22;271;51.114;13.780;2022-11-12T09:46:27;18.20;1.00
573;DHT22;271;51.114;13.780;2022-11-12T09:49:01;18.20;1.00
573;DHT22;271;51.114;13.780;2022-11-12T09:51:40;18.30;1.00
573;DHT22;271;51.114;13.780;2022-11-12T09:54:18;18.30;1.00
573;DHT22;271;51.114;13.780;2022-11-12T09:56:48;18.50;1.00
573;DHT22;271;51.114;13.780;2022-11-12T09:59:16;18.10;1.00
573;DHT22;271;51.114;13.780;2022-11-12T10:02:04;17.60;1.00
573;DHT22;271;51.114;13.780;2022-11-12T10:04:40;17.30;1.00
573;DHT22;271;51.114;13.780;2022-11-12T10:07:28;16.90;1.00
573;DHT22;271;51.114;13.780;2022-11-12T10:10:09;16.60;1.00
573;DHT22;271;51.114;13.780;2022-11-12T10:12:51;16.80;1.00
573;DHT22;271;51.114;13.780;2022-11-12T10:15:42;17.10;1.00
573;DHT22;271;51.114;13.780;2022-11-12T10:18:53;17.40;1.00
573;DHT22;271;51.114;13.780;2022-11-12T10:21:33;17.40;1.00
573;DHT22;271;51.114;13.780;2022-11-12T10:24:02;17.30;1.00
573;DHT22;271;51.114;13.780;2022-11-12T10:26:47;17.30;1.00
573;DHT22;271;51.114;13.780;2022-11-12T10:29:22;17.70;1.00
573;DHT22;271;51.114;13.780;2022-11-12T10:31:53;17.70;1.00
573;DHT22;271;51.114;13.780;2022-11-12T10:34:26;17.40;1.00
573;DHT22;271;51.114;13.780;2022-11-12T10:36:59;16.90;1.00
573;DHT22;271;51.114;13.780;2022-11-12T10:39:32;16.50;1.00
573;DHT22;271;51.114;13.780;2022-11-12T10:42:07;16.30;1.00
573;DHT22;271;51.114;13.780;2022-11-12T10:44:45;16.20;1.00
573;DHT22;271;51.114;13.780;2022-11-12T10:47:22;16.20;1.00
573;DHT22;271;51.114;13.780;2022-11-12T10:50:17;16.20;1.00
573;DHT22;271;51.114;13.780;2022-11-12T10:52:56;16.30;1.00
573;DHT22;271;51.114;13.780;2022-11-12T10:55:25;16.30;1.00
573;DHT22;271;51.114;13.780;2022-11-12T10:58:15;16.30;1.00
573;DHT22;271;51.114;13.780;2022-11-12T11:00:53;16.20;1.00
573;DHT22;271;51.114;13.780;2022-11-12T11:03:22;16.30;1.00
573;DHT22;271;51.114;13.780;2022-11-12T11:05:56;16.40;1.00
573;DHT22;271;51.114;13.780;2022-11-12T11:08:33;16.30;1.00
573;DHT22;271;51.114;13.780;2022-11-12T11:11:18;16.30;1.00
573;DHT22;271;51.114;13.780;2022-11-12T11:13:54;16.10;1.00
573;DHT22;271;51.114;13.780;2022-11-12T11:16:23;16.10;1.00
573;DHT22;271;51.114;13.780;2022-11-12T11:18:54;15.80;1.00
573;DHT22;271;51.114;13.780;2022-11-12T11:21:52;15.60;1.00
573;DHT22;271;51.114;13.780;2022-11-12T11:24:30;15.70;1.00
573;DHT22;271;51.114;13.780;2022-11-12T11:27:04;15.70;1.00
573;DHT22;271;51.114;13.780;2022-11-12T11:30:07;15.70;1.00
573;DHT22;271;51.114;13.780;2022-11-12T11:33:08;15.70;1.00
573;DHT22;271;51.114;13.780;2022-11-12T11:35:52;15.90;1.00
573;DHT22;271;51.114;13.780;2022-11-12T11:38:40;15.90;1.00
573;DHT22;271;51.114;13.780;2022-11-12T11:41:17;15.80;1.00
573;DHT22;271;51.114;13.780;2022-11-12T11:44:00;15.50;1.00
573;DHT22;271;51.114;13.780;2022-11-12T11:46:53;15.40;1.00
573;DHT22;271;51.114;13.780;2022-11-12T11:49:37;15.40;1.00
573;DHT22;271;51.114;13.780;2022-11-12T11:55:37;15.00;1.00
573;DHT22;271;51.114;13.780;2022-11-12T11:58:23;14.80;1.00
573;DHT22;271;51.114;13.780;2022-11-12T12:01:12;14.80;1.00
573;DHT22;271;51.114;13.780;2022-11-12T12:03:52;14.70;1.00
573;DHT22;271;51.114;13.780;2022-11-12T12:06:23;14.40;1.00
573;DHT22;271;51.114;13.780;2022-11-12T12:09:10;14.20;1.00
573;DHT22;271;51.114;13.780;2022-11-12T12:11:49;14.20;1.00
573;DHT22;271;51.114;13.780;2022-11-12T12:14:43;14.20;1.00
573;DHT22;271;51.114;13.780;2022-11-12T12:17:25;14.30;1.00
573;DHT22;271;51.114;13.780;2022-11-12T12:20:03;14.20;1.00
573;DHT22;271;51.114;13.780;2022-11-12T12:22:38;14.20;1.00
573;DHT22;271;51.114;13.780;2022-11-12T12:25:10;14.20;1.00
573;DHT22;271;51.114;13.780;2022-11-12T12:27:46;14.10;1.00
573;DHT22;271;51.114;13.780;2022-11-12T12:30:28;14.00;1.00
573;DHT22;271;51.114;13.780;2022-11-12T12:33:00;14.10;1.00
573;DHT22;271;51.114;13.780;2022-11-12T12:35:32;14.30;1.00
573;DHT22;271;51.114;13.780;2022-11-12T12:38:09;14.40;1.00
573;DHT22;271;51.114;13.780;2022-11-12T12:40:48;14.50;1.00
573;DHT22;271;51.114;13.780;2022-11-12T12:43:22;14.50;1.00
573;DHT22;271;51.114;13.780;2022-11-12T12:45:56;14.60;1.00
573;DHT22;271;51.114;13.780;2022-11-12T12:48:32;14.70;1.00
573;DHT22;271;51.114;13.780;2022-11-12T12:51:02;14.80;1.00
573;DHT22;271;51.114;13.780;2022-11-12T12:53:33;14.80;1.00
573;DHT22;271;51.114;13.780;2022-11-12T12:56:02;15.00;1.00
573;DHT22;271;51.114;13.780;2022-11-12T12:58:41;14.90;1.00
573;DHT22;271;51.114;13.780;2022-11-12T13:01:24;15.10;1.00
573;DHT22;271;51.114;13.780;2022-11-12T13:03:56;15.10;1.00
573;DHT22;271;51.114;13.780;2022-11-12T13:06:35;15.20;1.00
573;DHT22;271;51.114;13.780;2022-11-12T13:09:05;15.30;1.00
573;DHT22;271;51.114;13.780;2022-11-12T13:11:51;15.20;1.00
573;DHT22;271;51.114;13.780;2022-11-12T13:17:48;15.10;1.00
573;DHT22;271;51.114;13.780;2022-11-12T13:20:35;15.10;1.00
573;DHT22;271;51.114;13.780;2022-11-12T13:32:31;15.10;1.00
573;DHT22;271;51.114;13.780;2022-11-12T13:35:27;15.00;1.00
573;DHT22;271;51.114;13.780;2022-11-12T13:38:10;14.70;1.00
573;DHT22;271;51.114;13.780;2022-11-12T13:40:43;14.50;1.00
573;DHT22;271;51.114;13.780;2022-11-12T13:43:44;14.30;1.00
573;DHT22;271;51.114;13.780;2022-11-12T13:46:34;14.10;1.00
573;DHT22;271;51.114;13.780;2022-11-12T13:49:03;13.90;1.00
573;DHT22;271;51.114;13.780;2022-11-12T13:51:38;13.80;1.00
573;DHT22;271;51.114;13.780;2022-11-12T13:54:33;13.70;1.00
573;DHT22;271;51.114;13.780;2022-11-12T13:57:26;13.60;1.00
573;DHT22;271;51.114;13.780;2022-11-12T14:00:31;13.60;1.00
573;DHT22;271;51.114;13.780;2022-11-12T14:03:00;13.60;1.00
573;DHT22;271;51.114;13.780;2022-11-12T14:05:29;13.60;1.00
573;DHT22;271;51.114;13.780;2022-11-12T14:11:53;13.50;1.00
573;DHT22;271;51.114;13.780;2022-11-12T14:14:33;13.40;1.00
573;DHT22;271;51.114;13.780;2022-11-12T14:17:16;13.30;1.00
573;DHT22;271;51.114;13.780;2022-11-12T14:20:16;13.10;1.00
573;DHT22;271;51.114;13.780;2022-11-12T14:22:47;12.90;1.00
573;DHT22;271;51.114;13.780;2022-11-12T14:25:22;12.80;1.00
573;DHT22;271;51.114;13.780;2022-11-12T14:27:53;12.70;1.00
573;DHT22;271;51.114;13.780;2022-11-12T14:30:22;12.50;1.00
573;DHT22;271;51.114;13.780;2022-11-12T14:32:51;12.40;1.00
573;DHT22;271;51.114;13.780;2022-11-12T14:35:34;12.20;1.00
573;DHT22;271;51.114;13.780;2022-11-12T14:38:19;12.10;1.00
573;DHT22;271;51.114;13.780;2022-11-12T14:40:50;12.00;1.00
573;DHT22;271;51.114;13.780;2022-11-12T14:43:28;11.80;1.00
573;DHT22;271;51.114;13.780;2022-11-12T14:45:58;11.60;1.00
573;DHT22;271;51.114;13.780;2022-11-12T14:48:27;11.50;1.00
573;DHT22;271;51.114;13.780;2022-11-12T14:51:00;11.40;1.00
573;DHT22;271;51.114;13.780;2022-11-12T14:53:32;11.30;1.00
573;DHT22;271;51.114;13.780;2022-11-12T14:56:05;11.20;1.00
573;DHT22;271;51.114;13.780;2022-11-12T14:58:38;11.10;1.00
573;DHT22;271;51.114;13.780;2022-11-12T15:01:28;10.90;1.00
573;DHT22;271;51.114;13.780;2022-11-12T15:04:16;10.90;1.00
573;DHT22;271;51.114;13.780;2022-11-12T15:07:02;10.70;1.00
573;DHT22;271;51.114;13.780;2022-11-12T15:09:34;10.50;1.00
573;DHT22;271;51.114;13.780;2022-11-12T15:12:04;10.40;1.00
573;DHT22;271;51.114;13.780;2022-11-12T15:14:34;10.40;1.00
573;DHT22;271;51.114;13.780;2022-11-12T15:17:21;10.20;1.00
573;DHT22;271;51.114;13.780;2022-11-12T15:19:52;10.10;1.00
573;DHT22;271;51.114;13.780;2022-11-12T15:22:21;10.00;1.00
573;DHT22;271;51.114;13.780;2022-11-12T15:24:49;9.90;1.00
573;DHT22;271;51.114;13.780;2022-11-12T15:27:32;9.80;1.00
573;DHT22;271;51.114;13.780;2022-11-12T15:30:14;9.70;1.00
573;DHT22;271;51.114;13.780;2022-11-12T15:32:42;9.60;1.00
573;DHT22;271;51.114;13.780;2022-11-12T15:35:34;9.50;1.00
573;DHT22;271;51.114;13.780;2022-11-12T15:38:05;9.40;1.00
573;DHT22;271;51.114;13.780;2022-11-12T15:40:40;9.40;1.00
573;DHT22;271;51.114;13.780;2022-11-12T15:43:13;9.30;1.00
573;DHT22;271;51.114;13.780;2022-11-12T15:45:49;9.10;1.00
573;DHT22;271;51.114;13.780;2022-11-12T15:48:17;9.00;1.00
573;DHT22;271;51.114;13.780;2022-11-12T15:50:45;8.90;1.00
573;DHT22;271;51.114;13.780;2022-11-12T15:53:13;8.80;1.00
573;DHT22;271;51.114;13.780;2022-11-12T15:55:41;8.80;1.00
573;DHT22;271;51.114;13.780;2022-11-12T15:58:14;8.80;1.00
573;DHT22;271;51.114;13.780;2022-11-12T16:00:44;8.70;1.00
573;DHT22;271;51.114;13.780;2022-11-12T16:03:13;8.60;1.00
573;DHT22;271;51.114;13.780;2022-11-12T16:05:41;8.50;1.00
573;DHT22;271;51.114;13.780;2022-11-12T16:08:08;8.40;1.00
573;DHT22;271;51.114;13.780;2022-11-12T16:10:37;8.30;1.00
573;DHT22;271;51.114;13.780;2022-11-12T16:13:12;8.30;1.00
573;DHT22;271;51.114;13.780;2022-11-12T16:15:45;8.20;1.00
573;DHT22;271;51.114;13.780;2022-11-12T16:18:12;8.10;1.00
573;DHT22;271;51.114;13.780;2022-11-12T16:20:39;8.10;1.00
573;DHT22;271;51.114;13.780;2022-11-12T16:23:07;8.10;1.00
573;DHT22;271;51.114;13.780;2022-11-12T16:25:36;8.00;1.00
573;DHT22;271;51.114;13.780;2022-11-12T16:28:09;7.90;1.00
573;DHT22;271;51.114;13.780;2022-11-12T16:30:39;7.90;1.00
573;DHT22;271;51.114;13.780;2022-11-12T16:33:11;8.00;1.00
573;DHT22;271;51.114;13.780;2022-11-12T16:35:39;7.80;1.00
573;DHT22;271;51.114;13.780;2022-11-12T16:38:12;7.70;1.00
573;DHT22;271;51.114;13.780;2022-11-12T16:40:41;7.60;1.00
573;DHT22;271;51.114;13.780;2022-11-12T16:43:08;7.60;1.00
573;DHT22;271;51.114;13.780;2022-11-12T16:45:38;7.50;1.00
573;DHT22;271;51.114;13.780;2022-11-12T16:48:20;7.50;1.00
573;DHT22;271;51.114;13.780;2022-11-12T16:50:48;7.60;1.00
573;DHT22;271;51.114;13.780;2022-11-12T16:53:15;7.40;1.00
573;DHT22;271;51.114;13.780;2022-11-12T16:55:43;7.30;1.00
573;DHT22;271;51.114;13.780;2022-11-12T16:58:12;7.40;1.00
573;DHT22;271;51.114;13.780;2022-11-12T17:00:40;7.30;1.00
573;DHT22;271;51.114;13.780;2022-11-12T17:03:10;7.20;1.00
573;DHT22;271;51.114;13.780;2022-11-12T17:05:39;7.10;1.00
573;DHT22;271;51.114;13.780;2022-11-12T17:08:09;7.10;1.00
573;DHT22;271;51.114;13.780;2022-11-12T17:10:39;7.00;1.00
573;DHT22;271;51.114;13.780;2022-11-12T17:13:08;7.00;1.00
573;DHT22;271;51.114;13.780;2022-11-12T17:15:37;7.10;1.00
573;DHT22;271;51.114;13.780;2022-11-12T17:18:05;7.00;1.00
573;DHT22;271;51.114;13.780;2022-11-12T17:20:36;6.90;1.00
573;DHT22;271;51.114;13.780;2022-11-12T17:23:05;6.80;1.00
573;DHT22;271;51.114;13.780;2022-11-12T17:25:35;6.70;1.00
573;DHT22;271;51.114;13.780;2022-11-12T17:28:02;6.70;1.00
573;DHT22;271;51.114;13.780;2022-11-12T17:30:30;6.70;1.00
573;DHT22;271;51.114;13.780;2022-11-12T17:32:58;6.60;1.00
573;DHT22;271;51.114;13.780;2022-11-12T17:35:25;6.50;1.00
573;DHT22;271;51.114;13.780;2022-11-12T17:37:52;6.50;1.00
573;DHT22;271;51.114;13.780;2022-11-12T17:40:21;6.40;1.00